Charles B. Wheeler Downtown Airport


Codes: KMKC/MKC
Name: Charles B. Wheeler Downtown Airport
City: Kansas City
Country: United States
Elevation: 759 ft.
Wikipedia:

Photos at Charles B. Wheeler Downtown Airport


   Photos courtesy of SpottingLog. You can add your own sightings and photos by signing up for a free trial today.



No photos found.

Weather at Charles B. Wheeler Downtown Airport


Time (UTC)DescriptionTempratureWindCloud coverageVisibilityPressureHumidity
19-Apr-2024 03:00Scattered Clouds9°C9 mph, N34%10000m1020hPa86%
19-Apr-2024 06:00Scattered Clouds8°C9 mph, N28%10000m1021hPa81%
19-Apr-2024 09:00Broken Clouds6°C7 mph, N51%10000m1023hPa74%
19-Apr-2024 12:00Broken Clouds4°C7 mph, N59%10000m1025hPa67%
19-Apr-2024 15:00Scattered Clouds11°C7 mph, N34%10000m1027hPa39%
19-Apr-2024 18:00Scattered Clouds14°C7 mph, N34%10000m1026hPa33%
19-Apr-2024 21:00Broken Clouds15°C9 mph, N66%10000m1023hPa34%
20-Apr-2024 00:00Broken Clouds13°C4 mph, N63%10000m1024hPa47%
20-Apr-2024 03:00Few Clouds9°C2 mph, NE18%10000m1026hPa52%
20-Apr-2024 06:00Scattered Clouds7°C7 mph, NE37%10000m1027hPa61%
20-Apr-2024 09:00Light Rain7°C2 mph, N99%10000m1029hPa60%
20-Apr-2024 12:00Overcast Clouds6°C7 mph, N100%10000m1030hPa59%
20-Apr-2024 15:00Overcast Clouds9°C11 mph, N91%10000m1030hPa40%
20-Apr-2024 18:00Overcast Clouds12°C11 mph, NW95%10000m1029hPa38%
20-Apr-2024 21:00Broken Clouds13°C11 mph, N74%10000m1027hPa37%
21-Apr-2024 00:00Broken Clouds11°C7 mph, N83%10000m1026hPa48%
21-Apr-2024 03:00Overcast Clouds9°C4 mph, N100%10000m1027hPa52%
21-Apr-2024 06:00Overcast Clouds6°C4 mph, N100%10000m1028hPa61%
21-Apr-2024 09:00Scattered Clouds5°C2 mph, NW43%10000m1027hPa63%
21-Apr-2024 12:00Scattered Clouds4°C4 mph, NW27%10000m1027hPa64%
21-Apr-2024 15:00Clear Sky11°C7 mph, NW8%10000m1027hPa46%
21-Apr-2024 18:00Clear Sky14°C7 mph, W8%10000m1024hPa40%
21-Apr-2024 21:00Overcast Clouds14°C7 mph, W91%10000m1022hPa49%
22-Apr-2024 00:00Overcast Clouds12°C4 mph, W95%10000m1021hPa58%
22-Apr-2024 03:00Overcast Clouds10°C4 mph, SW100%10000m1021hPa66%
22-Apr-2024 06:00Broken Clouds8°C4 mph, S55%10000m1020hPa79%
22-Apr-2024 09:00Clear Sky7°C7 mph, S10%10000m1019hPa85%
22-Apr-2024 12:00Scattered Clouds7°C7 mph, S33%10000m1018hPa84%
22-Apr-2024 15:00Broken Clouds13°C16 mph, S66%10000m1016hPa61%
22-Apr-2024 18:00Broken Clouds17°C18 mph, S54%10000m1013hPa52%
22-Apr-2024 21:00Overcast Clouds20°C18 mph, SW85%10000m1009hPa51%
23-Apr-2024 00:00Overcast Clouds18°C13 mph, S92%10000m1009hPa63%
23-Apr-2024 03:00Overcast Clouds16°C13 mph, S100%10000m1008hPa73%
23-Apr-2024 06:00Light Rain14°C16 mph, SW100%10000m1009hPa90%
23-Apr-2024 09:00Light Rain14°C11 mph, SW100%9552m1010hPa95%
23-Apr-2024 12:00Light Rain13°C7 mph, W100%10000m1012hPa97%
23-Apr-2024 15:00Broken Clouds16°C11 mph, NW53%10000m1013hPa55%
23-Apr-2024 18:00Broken Clouds19°C16 mph, NW54%10000m1015hPa39%
23-Apr-2024 21:00Scattered Clouds19°C18 mph, NW32%10000m1016hPa39%
24-Apr-2024 00:00Few Clouds14°C16 mph, N18%10000m1020hPa60%